Granville, Iowa
Current Conditions -  °F | °C
As of 3:35 PM on Monday 24 Nov 2014 (Local Time) from KORC Reporting Station
Broken Clouds Broken Clouds  
Wind Chill: 12°   Ceiling: 3000
Heat Index: 27°   Visibility: 10mi
Dew Point: 14°   Wind: 24mph
Humidity: 59%   Direction: 330°NNW
Pressure: 29.78"   Gusts: 30mph
Location:  42.99°N, 95.87°W
Report Text: KORC 242135Z AUTO 33021G26KT 10SM BKN030 M03/M10 A2978 RMK AO2
Loading
Personal Weather Stations






























Interactive Weather Map New forecast layout! Learn more

10-Day Weather Forecast

Advertisements
Track Severe Weather on mobile